Lavaca Bay — WDF2105 — position and weather

sailwx.info

Track history (hours):
 
Tides and Currents Weather Stations Pressure Air Temp Water Temp Dewpoint Dewpoint Depression Visibility Wind Speed Wind Dir Waves Ship Positions

Lavaca Bay

Owner: Higman Barge Lines, Inc, Orange, TX. More information available from US FCC via Universal Licensing System and Coast Guard Vessel Documentation Center.

Last reported at 2017-Oct-13 12:38 UTC. Time now 2017-Oct-18 09:08 UTC.
Position N 29°37' W 090°60'.

Length 24 m; draft 3 m.

Type: Towing. MMSI: 367424940.

Date/timePositionNaut miles runAvg speedWind from/ knotsBaromVisibWave heightAir tempDewpointWater temp
2017-Oct-13 12:38N 29°37' W 090°60'1 6.5
2017-Oct-13 12:27N 29°36' W 090°59'3 6.4
2017-Oct-13 12:00N 29°34' W 090°57'4 6.8
2017-Oct-13 11:29N 29°32' W 090°53'3 6.7
2017-Oct-13 11:00N 29°32' W 090°49'3 6.4
2017-Oct-13 10:31N 29°32' W 090°46'3 5.2
2017-Oct-13 10:01N 29°34' W 090°43'2 4.1
2017-Oct-13 09:30N 29°36' W 090°43'2 3.9
2017-Oct-13 09:01N 29°36' W 090°40'3 5.0
2017-Oct-13 08:30N 29°35' W 090°38'3 5.3
2017-Oct-13 08:00N 29°34' W 090°35'3 6.0
2017-Oct-13 07:30N 29°34' W 090°31'  
Track history (hours):
 
Tides and Currents Weather Stations Pressure Air Temp Water Temp Dewpoint Dewpoint Depression Visibility Wind Speed Wind Dir Waves Ship Positions

Lavaca Bay

Owner: Higman Barge Lines, Inc, Orange, TX. More information available from US FCC via Universal Licensing System and Coast Guard Vessel Documentation Center.

Last reported at 2017-Oct-13 12:38 UTC. Time now 2017-Oct-18 09:08 UTC.
Position N 29°37' W 090°60'.

Length 24 m; draft 3 m.

Type: Towing. MMSI: 367424940.

Date/timePositionNaut miles runAvg speedWind from/ knotsBaromVisibWave heightAir tempDewpointWater temp
2017-Oct-13 12:38N 29°37' W 090°60'1 6.5
2017-Oct-13 12:27N 29°36' W 090°59'3 6.4
2017-Oct-13 12:00N 29°34' W 090°57'4 6.8
2017-Oct-13 11:29N 29°32' W 090°53'3 6.7
2017-Oct-13 11:00N 29°32' W 090°49'3 6.4
2017-Oct-13 10:31N 29°32' W 090°46'3 5.2
2017-Oct-13 10:01N 29°34' W 090°43'2 4.1
2017-Oct-13 09:30N 29°36' W 090°43'2 3.9
2017-Oct-13 09:01N 29°36' W 090°40'3 5.0
2017-Oct-13 08:30N 29°35' W 090°38'3 5.3
2017-Oct-13 08:00N 29°34' W 090°35'3 6.0
2017-Oct-13 07:30N 29°34' W 090°31'  

Dump ship's entire track history